Time;durP1;ratioP1;P1;durP2;ratioP2;P2;SDS_P1;SDS_P2;PMS_P1;PMS_P2;Temp;Humidity;BMP_temperature;BMP_pressure;BME280_temperature;BME280_humidity;BME280_pressure;Samples;Min_cycle;Max_cycle;Signal;HPM_P1;HPM_P2
2024/01/01 00:02:51;;;;;;;9.45;5.50;;;;;;;;;;6202517;28;20046;-89
2024/01/01 00:05:56;;;;;;;11.68;5.07;;;;;;;;;;6203801;28;20124;-88
2024/01/01 00:08:59;;;;;;;11.30;4.72;;;;;;;;;;6156930;28;20053;-89
2024/01/01 00:12:00;;;;;;;10.35;4.13;;;;;;;;;;6190306;28;20076;-88
2024/01/01 00:15:03;;;;;;;9.57;5.47;;;;;;;;;;6185970;28;20140;-88
2024/01/01 00:18:05;;;;;;;14.40;5.90;;;;;;;;;;6226976;28;20061;-88
2024/01/01 00:21:08;;;;;;;14.15;6.20;;;;;;;;;;6215117;28;20520;-88
2024/01/01 00:24:10;;;;;;;13.63;6.53;;;;;;;;;;6203344;28;20045;-88
2024/01/01 00:27:12;;;;;;;15.55;7.85;;;;;;;;;;6194941;28;20056;-89
2024/01/01 00:30:14;;;;;;;18.52;8.68;;;;;;;;;;6201955;28;20496;-88
2024/01/01 00:33:18;;;;;;;18.92;8.85;;;;;;;;;;6176709;28;20058;-88
2024/01/01 00:36:21;;;;;;;19.52;9.80;;;;;;;;;;6195199;28;20125;-88
2024/01/01 00:39:26;;;;;;;22.67;9.20;;;;;;;;;;6204099;28;20272;-88
2024/01/01 00:42:28;;;;;;;22.55;9.50;;;;;;;;;;6162620;28;20234;-89
2024/01/01 00:45:34;;;;;;;22.33;9.32;;;;;;;;;;6171516;28;20179;-88
2024/01/01 00:48:52;;;;;;;21.77;10.35;;;;;;;;;;6203056;28;20229;-89
2024/01/01 00:51:59;;;;;;;17.63;9.45;;;;;;;;;;6180691;28;20042;-88
2024/01/01 00:55:03;;;;;;;20.50;9.70;;;;;;;;;;6182797;28;20050;-89
2024/01/01 00:58:06;;;;;;;19.30;8.25;;;;;;;;;;6191803;28;20045;-89
2024/01/01 01:01:09;;;;;;;20.17;8.98;;;;;;;;;;6190316;28;20530;-87
2024/01/01 01:04:14;;;;;;;16.58;8.38;;;;;;;;;;6181051;28;20049;-88
2024/01/01 01:07:17;;;;;;;16.92;7.68;;;;;;;;;;6186652;28;20057;-89
2024/01/01 01:10:18;;;;;;;13.73;6.78;;;;;;;;;;6186780;28;20049;-88
2024/01/01 01:13:21;;;;;;;11.73;6.10;;;;;;;;;;6199057;28;20078;-89
2024/01/01 01:16:24;;;;;;;14.60;6.43;;;;;;;;;;6203252;28;20042;-89
2024/01/01 01:19:26;;;;;;;9.87;4.87;;;;;;;;;;6173147;28;20120;-87
2024/01/01 01:22:28;;;;;;;9.57;5.18;;;;;;;;;;6189824;28;20452;-88
2024/01/01 01:25:36;;;;;;;7.28;4.28;;;;;;;;;;6201728;28;20528;-89
2024/01/01 01:28:38;;;;;;;9.45;3.80;;;;;;;;;;6202137;28;20049;-89
2024/01/01 01:31:41;;;;;;;9.25;3.83;;;;;;;;;;6207082;28;20058;-89
2024/01/01 01:34:43;;;;;;;10.10;3.75;;;;;;;;;;6196194;28;20519;-88
2024/01/01 01:37:45;;;;;;;7.85;3.22;;;;;;;;;;6190112;28;20050;-89
2024/01/01 01:40:47;;;;;;;10.52;3.75;;;;;;;;;;6203196;28;20049;-88
2024/01/01 01:43:49;;;;;;;9.02;3.60;;;;;;;;;;6184271;28;20060;-89
2024/01/01 01:46:52;;;;;;;7.10;3.17;;;;;;;;;;6206288;28;20049;-89
2024/01/01 01:49:58;;;;;;;8.02;3.30;;;;;;;;;;6209007;28;20021;-89
2024/01/01 01:53:03;;;;;;;11.00;4.50;;;;;;;;;;6224839;28;20029;-89
2024/01/01 01:56:07;;;;;;;8.88;3.33;;;;;;;;;;6174012;28;20071;-89
2024/01/01 01:59:12;;;;;;;6.07;2.20;;;;;;;;;;6165301;28;20046;-89
2024/01/01 02:02:15;;;;;;;9.68;3.17;;;;;;;;;;6208111;28;20519;-89
2024/01/01 02:05:18;;;;;;;8.93;2.92;;;;;;;;;;6164323;28;20187;-89
2024/01/01 02:08:21;;;;;;;5.38;2.88;;;;;;;;;;6192010;28;20049;-88
2024/01/01 02:11:23;;;;;;;6.20;2.60;;;;;;;;;;6186613;28;20176;-89
2024/01/01 02:14:28;;;;;;;8.30;2.40;;;;;;;;;;6198124;28;20060;-88
2024/01/01 02:17:33;;;;;;;6.22;2.58;;;;;;;;;;6181514;28;20058;-88
2024/01/01 02:20:39;;;;;;;6.60;2.70;;;;;;;;;;6202304;28;20046;-87
2024/01/01 02:23:41;;;;;;;7.03;2.35;;;;;;;;;;6189148;28;20047;-88
2024/01/01 02:26:45;;;;;;;4.70;2.20;;;;;;;;;;6176409;28;20129;-88
2024/01/01 02:29:47;;;;;;;8.23;2.67;;;;;;;;;;6197862;28;20065;-88
2024/01/01 02:32:49;;;;;;;8.13;2.58;;;;;;;;;;6189279;28;20109;-88
2024/01/01 02:35:52;;;;;;;5.18;2.38;;;;;;;;;;6205467;28;20046;-89
2024/01/01 02:38:54;;;;;;;11.02;3.38;;;;;;;;;;6184046;28;20054;-89
2024/01/01 02:41:58;;;;;;;9.02;3.40;;;;;;;;;;6195082;28;20050;-89
2024/01/01 02:45:00;;;;;;;9.98;2.55;;;;;;;;;;6184106;28;20060;-88
2024/01/01 02:48:04;;;;;;;6.45;2.70;;;;;;;;;;6204795;28;20160;-89
2024/01/01 02:51:08;;;;;;;4.93;2.20;;;;;;;;;;6172948;28;20509;-88
2024/01/01 02:54:10;;;;;;;;;;;;;;;;;;6189715;28;20497;-89
2024/01/01 02:57:15;;;;;;;11.02;2.65;;;;;;;;;;6177256;28;19925;-89
2024/01/01 03:00:20;;;;;;;6.50;2.83;;;;;;;;;;6197585;28;20525;-89
2024/01/01 03:03:22;;;;;;;8.93;2.22;;;;;;;;;;6220249;28;20080;-88
2024/01/01 03:06:27;;;;;;;4.53;1.90;;;;;;;;;;6218852;28;20346;-90
2024/01/01 03:09:29;;;;;;;10.75;2.10;;;;;;;;;;6217060;28;20107;-87
2024/01/01 03:12:32;;;;;;;8.05;2.08;;;;;;;;;;6207473;28;20045;-88
2024/01/01 03:15:34;;;;;;;8.48;2.05;;;;;;;;;;6192856;28;20095;-89
2024/01/01 03:18:38;;;;;;;6.78;1.85;;;;;;;;;;6196074;28;20100;-88
2024/01/01 03:21:42;;;;;;;5.82;1.60;;;;;;;;;;6193351;28;20045;-89
2024/01/01 03:24:45;;;;;;;5.55;1.98;;;;;;;;;;6172863;28;20045;-88
2024/01/01 03:27:47;;;;;;;7.60;2.30;;;;;;;;;;6188459;28;20056;-88
2024/01/01 03:30:51;;;;;;;9.07;1.77;;;;;;;;;;6195525;28;20270;-88
2024/01/01 03:33:53;;;;;;;4.63;1.63;;;;;;;;;;6169768;28;20045;-88
2024/01/01 03:36:55;;;;;;;7.80;2.22;;;;;;;;;;6218590;28;20057;-89
2024/01/01 03:39:57;;;;;;;4.60;2.08;;;;;;;;;;6201899;28;20066;-89
2024/01/01 03:43:00;;;;;;;5.30;1.58;;;;;;;;;;6215160;28;20054;-87
2024/01/01 03:46:02;;;;;;;5.38;1.70;;;;;;;;;;6233423;28;20033;-88
2024/01/01 03:49:05;;;;;;;;;;;;;;;;;;6198270;28;20061;-88
2024/01/01 03:52:07;;;;;;;3.92;1.60;;;;;;;;;;6187364;28;19925;-87
2024/01/01 03:55:10;;;;;;;8.77;1.90;;;;;;;;;;6186617;28;20166;-88
2024/01/01 03:58:12;;;;;;;11.32;2.83;;;;;;;;;;6194245;28;20045;-87
2024/01/01 04:01:20;;;;;;;7.43;1.20;;;;;;;;;;6190836;28;20111;-88
2024/01/01 04:04:22;;;;;;;10.25;1.90;;;;;;;;;;6192319;28;20049;-89
2024/01/01 04:07:24;;;;;;;7.15;1.42;;;;;;;;;;6181834;28;20045;-88
2024/01/01 04:10:26;;;;;;;5.28;1.10;;;;;;;;;;6188835;28;20450;-88
2024/01/01 04:13:27;;;;;;;6.63;1.02;;;;;;;;;;6199502;28;20104;-89
2024/01/01 04:16:29;;;;;;;8.93;1.15;;;;;;;;;;6203128;28;20236;-88
2024/01/01 04:19:33;;;;;;;3.50;1.10;;;;;;;;;;6194041;28;20136;-89
2024/01/01 04:22:40;;;;;;;8.90;1.30;;;;;;;;;;6187681;28;20049;-88
2024/01/01 04:25:44;;;;;;;3.47;1.00;;;;;;;;;;6192854;28;20046;-88
2024/01/01 04:28:47;;;;;;;6.57;1.15;;;;;;;;;;6160502;28;20054;-89
2024/01/01 04:31:50;;;;;;;8.10;1.45;;;;;;;;;;6202866;28;20101;-89
2024/01/01 04:34:53;;;;;;;8.73;2.15;;;;;;;;;;6163784;28;20053;-89
2024/01/01 04:37:57;;;;;;;3.88;1.30;;;;;;;;;;6202440;28;20041;-89
2024/01/01 04:40:59;;;;;;;4.25;1.48;;;;;;;;;;6183393;28;20107;-89
2024/01/01 04:44:01;;;;;;;8.05;1.42;;;;;;;;;;6203779;28;20038;-89
2024/01/01 04:47:03;;;;;;;8.80;1.52;;;;;;;;;;6181701;28;20050;-89
2024/01/01 04:50:09;;;;;;;5.45;1.13;;;;;;;;;;6190154;28;21053;-88
2024/01/01 04:53:11;;;;;;;8.15;1.25;;;;;;;;;;6199059;28;20044;-88
2024/01/01 04:56:21;;;;;;;5.70;1.27;;;;;;;;;;6150414;28;20046;-89
2024/01/01 04:59:23;;;;;;;7.97;1.00;;;;;;;;;;6188499;28;20101;-88
2024/01/01 05:02:25;;;;;;;5.55;1.30;;;;;;;;;;6187935;28;20054;-89
2024/01/01 05:05:27;;;;;;;7.07;1.08;;;;;;;;;;6212702;28;20042;-88
2024/01/01 05:08:32;;;;;;;7.32;1.02;;;;;;;;;;6186809;28;20040;-88
2024/01/01 05:11:39;;;;;;;6.30;1.08;;;;;;;;;;6188759;28;20050;-89
2024/01/01 05:14:43;;;;;;;7.47;1.42;;;;;;;;;;6202935;28;20086;-89
2024/01/01 05:17:47;;;;;;;8.48;1.27;;;;;;;;;;6211775;28;20563;-89
2024/01/01 05:20:51;;;;;;;6.07;1.00;;;;;;;;;;6194808;28;20367;-89
2024/01/01 05:23:55;;;;;;;5.65;0.80;;;;;;;;;;6204140;28;20053;-89
2024/01/01 05:26:57;;;;;;;2.75;0.90;;;;;;;;;;6189117;28;20045;-90
2024/01/01 05:29:59;;;;;;;5.72;0.80;;;;;;;;;;6182408;28;20053;-89
2024/01/01 05:33:01;;;;;;;6.95;0.98;;;;;;;;;;6214389;28;20049;-89
2024/01/01 05:36:12;;;;;;;4.25;0.75;;;;;;;;;;6212273;28;20042;-89
2024/01/01 05:39:16;;;;;;;10.40;1.00;;;;;;;;;;6197255;28;20117;-88
2024/01/01 05:42:18;;;;;;;8.50;1.10;;;;;;;;;;6223289;28;20034;-88
2024/01/01 05:45:20;;;;;;;5.32;1.52;;;;;;;;;;6198450;28;20084;-88
2024/01/01 05:48:25;;;;;;;3.90;0.90;;;;;;;;;;6171845;28;20048;-89
2024/01/01 05:51:39;;;;;;;7.25;1.10;;;;;;;;;;6230441;28;20045;-91
2024/01/01 05:54:45;;;;;;;5.68;1.00;;;;;;;;;;6221442;28;20096;-89
2024/01/01 05:57:59;;;;;;;6.65;1.00;;;;;;;;;;6194008;28;20038;-89
2024/01/01 06:01:01;;;;;;;8.30;1.30;;;;;;;;;;6185079;28;20176;-88
2024/01/01 06:04:07;;;;;;;5.32;0.90;;;;;;;;;;6202317;28;20045;-88
2024/01/01 06:07:11;;;;;;;5.45;0.85;;;;;;;;;;6195971;28;20435;-88
2024/01/01 06:10:16;;;;;;;4.57;0.90;;;;;;;;;;6207250;28;20052;-88
2024/01/01 06:13:18;;;;;;;4.88;1.40;;;;;;;;;;6207646;28;20052;-88
2024/01/01 06:16:20;;;;;;;6.80;1.40;;;;;;;;;;6208565;28;20045;-89
2024/01/01 06:19:22;;;;;;;5.32;0.93;;;;;;;;;;6175648;28;20053;-89
2024/01/01 06:22:24;;;;;;;4.28;1.17;;;;;;;;;;6206490;28;20556;-89
2024/01/01 06:25:26;;;;;;;5.80;0.93;;;;;;;;;;6203938;28;20049;-90
2024/01/01 06:28:31;;;;;;;7.18;1.25;;;;;;;;;;6211742;28;20143;-88
2024/01/01 06:31:36;;;;;;;10.43;2.30;;;;;;;;;;6193352;28;20058;-89
2024/01/01 06:34:39;;;;;;;3.10;1.38;;;;;;;;;;6177440;28;20081;-88
2024/01/01 06:37:43;;;;;;;6.72;1.20;;;;;;;;;;6186588;28;20265;-89
2024/01/01 06:40:47;;;;;;;5.32;1.02;;;;;;;;;;6185486;28;20045;-89
2024/01/01 06:43:49;;;;;;;6.72;1.10;;;;;;;;;;6193258;28;20187;-88
2024/01/01 06:46:52;;;;;;;5.15;1.17;;;;;;;;;;6190259;28;20046;-89
2024/01/01 06:49:56;;;;;;;5.85;1.02;;;;;;;;;;6196147;28;20048;-88
2024/01/01 06:52:58;;;;;;;8.02;1.05;;;;;;;;;;6207471;28;20050;-88
2024/01/01 06:56:00;;;;;;;9.07;1.13;;;;;;;;;;6202920;28;20143;-89
2024/01/01 06:59:08;;;;;;;8.63;1.00;;;;;;;;;;6176435;28;20089;-90
2024/01/01 07:02:10;;;;;;;6.40;0.98;;;;;;;;;;6182009;28;20049;-89
2024/01/01 07:05:19;;;;;;;5.23;0.87;;;;;;;;;;6138537;28;20049;-89
2024/01/01 07:09:08;;;;;;;3.08;0.80;;;;;;;;;;6128928;28;20094;-89
2024/01/01 07:12:23;;;;;;;4.50;1.08;;;;;;;;;;6128820;28;20049;-90
2024/01/01 07:15:28;;;;;;;9.27;1.48;;;;;;;;;;6136114;28;20082;-89
2024/01/01 07:18:32;;;;;;;7.50;1.77;;;;;;;;;;6164944;28;20049;-89
2024/01/01 07:21:35;;;;;;;6.15;1.05;;;;;;;;;;6159930;28;20057;-91
2024/01/01 07:24:40;;;;;;;9.80;1.48;;;;;;;;;;6193660;28;20630;-92
2024/01/01 07:27:45;;;;;;;4.55;1.02;;;;;;;;;;6213464;28;20056;-92
2024/01/01 07:30:47;;;;;;;11.00;1.35;;;;;;;;;;6221438;28;20050;-89
2024/01/01 07:33:49;;;;;;;13.30;1.80;;;;;;;;;;6216995;28;20049;-89
2024/01/01 07:36:54;;;;;;;8.13;0.88;;;;;;;;;;6197156;28;20513;-89
2024/01/01 07:39:56;;;;;;;10.20;1.60;;;;;;;;;;6207602;28;20386;-90
2024/01/01 07:42:59;;;;;;;7.50;1.00;;;;;;;;;;6197742;28;20129;-90
2024/01/01 07:46:01;;;;;;;8.90;1.17;;;;;;;;;;6181550;28;20124;-90
2024/01/01 07:49:06;;;;;;;5.60;1.05;;;;;;;;;;6199308;28;20049;-89
2024/01/01 07:52:08;;;;;;;7.35;1.35;;;;;;;;;;6201490;28;20041;-90
2024/01/01 07:55:12;;;;;;;6.15;1.00;;;;;;;;;;6182088;28;20053;-90
2024/01/01 07:58:14;;;;;;;;;;;;;;;;;;6170197;28;20045;-89
2024/01/01 08:01:16;;;;;;;5.90;1.10;;;;;;;;;;6209103;28;19922;-90
2024/01/01 08:04:18;;;;;;;7.88;1.25;;;;;;;;;;6211416;28;20042;-89
2024/01/01 08:07:21;;;;;;;9.77;1.33;;;;;;;;;;6183589;28;20037;-90
2024/01/01 08:10:24;;;;;;;13.52;1.73;;;;;;;;;;6179796;28;20049;-90
2024/01/01 08:13:26;;;;;;;5.13;1.10;;;;;;;;;;6177583;28;20046;-90
2024/01/01 08:16:28;;;;;;;4.73;1.00;;;;;;;;;;6205941;28;20062;-89
2024/01/01 08:19:30;;;;;;;6.28;0.90;;;;;;;;;;6177478;28;20106;-89
2024/01/01 08:22:35;;;;;;;8.15;1.05;;;;;;;;;;6199063;28;20045;-90
2024/01/01 08:25:39;;;;;;;9.00;1.20;;;;;;;;;;6192293;28;20050;-88
2024/01/01 08:28:41;;;;;;;4.18;1.13;;;;;;;;;;6193449;28;20247;-88
2024/01/01 08:31:43;;;;;;;3.97;1.00;;;;;;;;;;6178435;28;20103;-88
2024/01/01 08:34:45;;;;;;;4.97;0.73;;;;;;;;;;6222646;28;20521;-89
2024/01/01 08:37:48;;;;;;;5.47;1.10;;;;;;;;;;6232263;28;20060;-91
2024/01/01 08:40:52;;;;;;;10.02;1.15;;;;;;;;;;6215441;28;20056;-89
2024/01/01 08:43:58;;;;;;;6.65;1.80;;;;;;;;;;6191436;28;20042;-88
2024/01/01 08:47:01;;;;;;;4.50;1.10;;;;;;;;;;6206500;28;20048;-89
2024/01/01 08:50:03;;;;;;;3.42;0.82;;;;;;;;;;6186215;28;20071;-90
2024/01/01 08:53:06;;;;;;;6.43;1.05;;;;;;;;;;6187957;28;20045;-89
2024/01/01 08:56:13;;;;;;;7.25;1.50;;;;;;;;;;6196688;28;20041;-89
2024/01/01 08:59:16;;;;;;;7.53;1.55;;;;;;;;;;6213532;28;20057;-91
2024/01/01 09:02:20;;;;;;;7.22;1.02;;;;;;;;;;6222845;28;20045;-89
2024/01/01 09:05:22;;;;;;;7.13;1.00;;;;;;;;;;6214769;28;20104;-90
2024/01/01 09:08:24;;;;;;;6.15;1.05;;;;;;;;;;6222959;28;20444;-89
2024/01/01 09:11:27;;;;;;;6.75;1.17;;;;;;;;;;6222927;28;20050;-90
2024/01/01 09:14:29;;;;;;;3.77;1.13;;;;;;;;;;6199081;28;20052;-89
2024/01/01 09:17:36;;;;;;;6.13;0.82;;;;;;;;;;6200283;28;20046;-89
2024/01/01 09:20:41;;;;;;;7.15;1.15;;;;;;;;;;6186788;28;20180;-89
2024/01/01 09:23:43;;;;;;;6.75;1.25;;;;;;;;;;6185981;28;20048;-88
2024/01/01 09:26:46;;;;;;;9.48;1.63;;;;;;;;;;6191527;28;20050;-89
2024/01/01 09:29:48;;;;;;;5.35;1.40;;;;;;;;;;6194358;28;20046;-88
2024/01/01 09:32:53;;;;;;;3.22;0.93;;;;;;;;;;6186927;28;20055;-88
2024/01/01 09:36:05;;;;;;;;;;;;;;;;;;;;;
2024/01/01 09:39:07;;;;;;;5.43;1.60;;;;;;;;;;6194109;28;20523;-89
2024/01/01 09:42:11;;;;;;;9.80;1.38;;;;;;;;;;6180552;23;20051;-77
2024/01/01 09:45:13;;;;;;;9.18;1.45;;;;;;;;;;6220730;28;20049;-77
2024/01/01 09:48:15;;;;;;;7.03;1.10;;;;;;;;;;6210911;28;20045;-79
2024/01/01 09:51:16;;;;;;;5.50;1.42;;;;;;;;;;6207344;28;20392;-77
2024/01/01 09:54:18;;;;;;;8.05;1.73;;;;;;;;;;6210901;28;20065;-77
2024/01/01 09:57:20;;;;;;;9.40;1.55;;;;;;;;;;6202949;28;20049;-77
2024/01/01 10:00:23;;;;;;;3.05;0.73;;;;;;;;;;6203577;28;20515;-77
2024/01/01 10:03:25;;;;;;;7.30;1.17;;;;;;;;;;6203992;28;20262;-78
2024/01/01 10:06:26;;;;;;;7.28;1.58;;;;;;;;;;6208493;28;20056;-78
2024/01/01 10:09:29;;;;;;;2.45;0.93;;;;;;;;;;6204238;28;20121;-77
2024/01/01 10:12:32;;;;;;;9.55;1.30;;;;;;;;;;6208732;28;20087;-79
2024/01/01 10:15:35;;;;;;;;;;;;;;;;;;6206604;28;20129;-78
2024/01/01 10:18:37;;;;;;;6.78;1.17;;;;;;;;;;6207865;28;19925;-78
2024/01/01 10:21:41;;;;;;;3.42;1.30;;;;;;;;;;6215419;28;20111;-78
2024/01/01 10:24:43;;;;;;;5.50;1.08;;;;;;;;;;6205696;28;20626;-78
2024/01/01 10:27:46;;;;;;;6.45;1.20;;;;;;;;;;6213204;28;20072;-77
2024/01/01 10:30:47;;;;;;;4.80;0.75;;;;;;;;;;6203644;28;20044;-77
2024/01/01 10:33:50;;;;;;;3.60;1.05;;;;;;;;;;6205086;28;20152;-77
2024/01/01 10:36:52;;;;;;;5.75;1.02;;;;;;;;;;6210690;28;20124;-78
2024/01/01 10:39:54;;;;;;;2.05;0.80;;;;;;;;;;6207889;28;20065;-77
2024/01/01 10:42:58;;;;;;;5.38;0.85;;;;;;;;;;6208212;28;20124;-77
2024/01/01 10:46:05;;;;;;;;;;;;;;;;;;6208661;28;20045;-77
2024/01/01 10:49:11;;;;;;;5.13;0.68;;;;;;;;;;6202612;28;19926;-77
2024/01/01 10:52:37;;;;;;;5.15;1.08;;;;;;;;;;6204033;28;20496;-77
2024/01/01 10:55:58;;;;;;;4.63;1.20;;;;;;;;;;6204279;28;20046;-77
2024/01/01 10:59:19;;;;;;;3.63;1.20;;;;;;;;;;6206181;28;20046;-77
2024/01/01 11:02:23;;;;;;;7.68;1.50;;;;;;;;;;6220823;28;20054;-76
2024/01/01 11:05:33;;;;;;;7.28;1.60;;;;;;;;;;6208174;28;20046;-77
2024/01/01 11:08:35;;;;;;;5.53;1.58;;;;;;;;;;6205915;28;20065;-77
2024/01/01 11:11:46;;;;;;;4.85;1.35;;;;;;;;;;6206673;28;20077;-77
2024/01/01 11:14:48;;;;;;;7.43;1.23;;;;;;;;;;6203690;28;20046;-77
2024/01/01 11:17:50;;;;;;;7.60;1.27;;;;;;;;;;6203677;28;20050;-77
2024/01/01 11:20:53;;;;;;;2.50;1.00;;;;;;;;;;6205389;28;20120;-77
2024/01/01 11:23:56;;;;;;;2.97;1.10;;;;;;;;;;6199243;28;20156;-77
2024/01/01 11:27:27;;;;;;;4.60;0.80;;;;;;;;;;6197496;28;20065;-77
2024/01/01 11:30:29;;;;;;;3.40;0.80;;;;;;;;;;6196805;28;20053;-77
2024/01/01 11:33:31;;;;;;;3.25;1.05;;;;;;;;;;6197306;28;20048;-77
2024/01/01 11:36:34;;;;;;;4.18;1.00;;;;;;;;;;6203384;28;20045;-76
2024/01/01 11:39:36;;;;;;;2.75;0.80;;;;;;;;;;6172203;28;20137;-76
2024/01/01 11:42:38;;;;;;;6.07;1.60;;;;;;;;;;6196566;28;20196;-76
2024/01/01 11:45:40;;;;;;;3.70;0.70;;;;;;;;;;6199637;28;20050;-77
2024/01/01 11:49:00;;;;;;;4.45;0.80;;;;;;;;;;6202666;28;20125;-77
2024/01/01 11:52:04;;;;;;;5.45;0.88;;;;;;;;;;6216939;28;20045;-77
2024/01/01 11:55:07;;;;;;;2.65;0.70;;;;;;;;;;6199258;28;20071;-77
2024/01/01 11:58:09;;;;;;;3.65;0.75;;;;;;;;;;6198970;28;20049;-76
2024/01/01 12:01:12;;;;;;;4.20;1.10;;;;;;;;;;6194652;28;20431;-76
2024/01/01 12:04:14;;;;;;;3.13;0.95;;;;;;;;;;6212307;28;20125;-76
2024/01/01 12:07:33;;;;;;;3.50;0.68;;;;;;;;;;6203623;28;20049;-76
2024/01/01 12:10:35;;;;;;;3.30;0.88;;;;;;;;;;6209889;28;20046;-77
2024/01/01 12:13:37;;;;;;;3.58;0.73;;;;;;;;;;6201560;28;20336;-77
2024/01/01 12:16:42;;;;;;;3.22;0.65;;;;;;;;;;6195944;28;20053;-77
2024/01/01 12:19:44;;;;;;;2.03;0.60;;;;;;;;;;6196798;28;20091;-77
2024/01/01 12:22:48;;;;;;;6.10;1.60;;;;;;;;;;6200968;28;20172;-77
2024/01/01 12:26:04;;;;;;;3.40;1.00;;;;;;;;;;6177911;28;20096;-77
2024/01/01 12:29:13;;;;;;;4.00;0.73;;;;;;;;;;6213986;28;20427;-77
2024/01/01 12:32:15;;;;;;;6.05;0.88;;;;;;;;;;6189259;28;20408;-77
2024/01/01 12:35:17;;;;;;;2.70;0.70;;;;;;;;;;6218668;28;20132;-77
2024/01/01 12:38:18;;;;;;;4.60;0.70;;;;;;;;;;6203742;28;20076;-77
2024/01/01 12:41:20;;;;;;;5.68;0.98;;;;;;;;;;6197930;28;20582;-77
2024/01/01 12:44:23;;;;;;;6.00;1.15;;;;;;;;;;6201128;28;20045;-77
2024/01/01 12:47:25;;;;;;;4.20;0.85;;;;;;;;;;6216108;28;20057;-78
2024/01/01 12:50:27;;;;;;;2.70;0.75;;;;;;;;;;6179046;28;20495;-76
2024/01/01 12:53:29;;;;;;;7.63;1.00;;;;;;;;;;6199224;28;20064;-76
2024/01/01 12:56:32;;;;;;;5.97;1.20;;;;;;;;;;6191775;28;20061;-77
2024/01/01 12:59:34;;;;;;;5.63;1.20;;;;;;;;;;6194662;28;20054;-77
2024/01/01 13:02:36;;;;;;;4.60;1.20;;;;;;;;;;6197153;28;20081;-77
2024/01/01 13:05:38;;;;;;;4.95;0.90;;;;;;;;;;6201782;28;20464;-76
2024/01/01 13:08:40;;;;;;;4.57;0.80;;;;;;;;;;6194147;28;20119;-76
2024/01/01 13:11:42;;;;;;;4.10;1.15;;;;;;;;;;6199284;28;20060;-77
2024/01/01 13:14:43;;;;;;;8.80;1.23;;;;;;;;;;6212096;28;20080;-78
2024/01/01 13:17:45;;;;;;;6.07;1.33;;;;;;;;;;6191149;28;20053;-77
2024/01/01 13:20:47;;;;;;;5.43;1.00;;;;;;;;;;6202664;28;20046;-76
2024/01/01 13:23:49;;;;;;;8.35;1.25;;;;;;;;;;6201982;28;21094;-78
2024/01/01 13:26:50;;;;;;;4.70;1.13;;;;;;;;;;6206842;28;20157;-78
2024/01/01 13:29:52;;;;;;;8.02;1.08;;;;;;;;;;6199039;28;20080;-77
2024/01/01 13:32:54;;;;;;;4.68;0.90;;;;;;;;;;6203000;28;20092;-77
2024/01/01 13:35:55;;;;;;;5.45;0.80;;;;;;;;;;6222048;28;20462;-77
2024/01/01 13:38:57;;;;;;;4.00;0.82;;;;;;;;;;6197960;28;20053;-77
2024/01/01 13:41:59;;;;;;;6.28;0.88;;;;;;;;;;6180177;28;20529;-78
2024/01/01 13:45:01;;;;;;;4.88;1.00;;;;;;;;;;6217790;28;20046;-78
2024/01/01 13:48:03;;;;;;;8.55;1.20;;;;;;;;;;6203543;28;20184;-77
2024/01/01 13:51:05;;;;;;;4.63;1.13;;;;;;;;;;6200650;28;20037;-76
2024/01/01 13:54:06;;;;;;;6.22;1.20;;;;;;;;;;6199085;28;20049;-76
2024/01/01 13:57:08;;;;;;;4.40;1.10;;;;;;;;;;6203760;28;20128;-76
2024/01/01 14:00:10;;;;;;;9.00;1.50;;;;;;;;;;6198602;28;20056;-76
2024/01/01 14:03:16;;;;;;;5.80;1.00;;;;;;;;;;6199934;28;20558;-76
2024/01/01 14:06:18;;;;;;;9.32;1.20;;;;;;;;;;6203580;28;20474;-77
2024/01/01 14:09:20;;;;;;;6.78;1.20;;;;;;;;;;6217079;28;20763;-76
2024/01/01 14:12:22;;;;;;;3.72;1.10;;;;;;;;;;6202611;28;20140;-76
2024/01/01 14:15:23;;;;;;;6.13;1.20;;;;;;;;;;6199543;28;20408;-77
2024/01/01 14:18:25;;;;;;;9.00;2.47;;;;;;;;;;6201074;28;20072;-76
2024/01/01 14:21:27;;;;;;;7.55;1.35;;;;;;;;;;6198911;28;20050;-77
2024/01/01 14:24:29;;;;;;;5.95;0.80;;;;;;;;;;6197315;28;20140;-77
2024/01/01 14:27:31;;;;;;;5.55;0.95;;;;;;;;;;6203739;28;20643;-77
2024/01/01 14:30:34;;;;;;;6.75;1.52;;;;;;;;;;6196086;28;20176;-77
2024/01/01 14:33:36;;;;;;;4.35;1.23;;;;;;;;;;6198182;28;20166;-78
2024/01/01 14:36:38;;;;;;;9.90;1.52;;;;;;;;;;6204007;28;20116;-77
2024/01/01 14:39:39;;;;;;;5.90;1.27;;;;;;;;;;6197878;28;20085;-77
2024/01/01 14:42:43;;;;;;;5.28;1.27;;;;;;;;;;6202518;28;20042;-77
2024/01/01 14:45:44;;;;;;;7.60;1.48;;;;;;;;;;6201492;28;20056;-77
2024/01/01 14:48:46;;;;;;;6.75;1.30;;;;;;;;;;6202579;28;20050;-77
2024/01/01 14:51:48;;;;;;;6.28;1.70;;;;;;;;;;6196316;28;20096;-77
2024/01/01 14:54:50;;;;;;;8.57;1.30;;;;;;;;;;6203081;28;20061;-77
2024/01/01 14:57:51;;;;;;;7.85;1.45;;;;;;;;;;6207439;28;20081;-77
2024/01/01 15:00:54;;;;;;;7.40;1.52;;;;;;;;;;6202459;28;20049;-77
2024/01/01 15:03:55;;;;;;;7.47;1.60;;;;;;;;;;6213067;28;20041;-77
2024/01/01 15:06:58;;;;;;;13.18;1.70;;;;;;;;;;6221142;28;20054;-77
2024/01/01 15:09:59;;;;;;;7.60;1.33;;;;;;;;;;6197512;28;20057;-77
2024/01/01 15:13:01;;;;;;;10.20;1.40;;;;;;;;;;6219529;28;20124;-77
2024/01/01 15:16:03;;;;;;;12.05;1.90;;;;;;;;;;6201688;28;20057;-78
2024/01/01 15:19:05;;;;;;;6.80;1.42;;;;;;;;;;6207609;28;20045;-77
2024/01/01 15:22:07;;;;;;;4.93;1.38;;;;;;;;;;6206388;28;20123;-76
2024/01/01 15:25:09;;;;;;;7.32;1.42;;;;;;;;;;6186823;28;20049;-77
2024/01/01 15:28:10;;;;;;;6.53;1.30;;;;;;;;;;6200329;28;20049;-77
2024/01/01 15:31:19;;;;;;;7.75;1.80;;;;;;;;;;6202983;28;20124;-77
2024/01/01 15:34:21;;;;;;;11.63;1.52;;;;;;;;;;6208023;28;20045;-78
2024/01/01 15:37:23;;;;;;;8.95;1.55;;;;;;;;;;6205456;28;20045;-77
2024/01/01 15:40:24;;;;;;;8.07;1.77;;;;;;;;;;6200873;28;20527;-77
2024/01/01 15:43:26;;;;;;;9.50;2.00;;;;;;;;;;6205395;28;20049;-77
2024/01/01 15:46:28;;;;;;;6.43;1.52;;;;;;;;;;6207918;28;20042;-77
2024/01/01 15:49:30;;;;;;;10.07;1.77;;;;;;;;;;6203859;28;20038;-78
2024/01/01 15:52:31;;;;;;;8.45;2.03;;;;;;;;;;6218815;28;20183;-77
2024/01/01 15:55:33;;;;;;;8.65;2.20;;;;;;;;;;6184997;28;20065;-77
2024/01/01 15:58:35;;;;;;;8.90;1.63;;;;;;;;;;6200978;28;20050;-77
2024/01/01 16:01:36;;;;;;;15.15;1.75;;;;;;;;;;6203901;28;20176;-77
2024/01/01 16:04:39;;;;;;;7.22;1.85;;;;;;;;;;6203914;28;20645;-77
2024/01/01 16:07:40;;;;;;;14.82;2.22;;;;;;;;;;6216134;28;20127;-77
2024/01/01 16:10:42;;;;;;;17.70;2.35;;;;;;;;;;6199070;28;20041;-77
2024/01/01 16:13:48;;;;;;;9.57;1.90;;;;;;;;;;6202397;28;20049;-77
2024/01/01 16:16:50;;;;;;;10.38;1.85;;;;;;;;;;6199746;28;20177;-77
2024/01/01 16:19:54;;;;;;;14.82;1.98;;;;;;;;;;6208478;28;20053;-78
2024/01/01 16:22:56;;;;;;;15.00;2.00;;;;;;;;;;6209301;28;20038;-78
2024/01/01 16:25:58;;;;;;;10.00;1.90;;;;;;;;;;6203524;28;20053;-78
2024/01/01 16:29:00;;;;;;;11.65;1.73;;;;;;;;;;6203840;28;20251;-78
2024/01/01 16:32:01;;;;;;;6.78;1.77;;;;;;;;;;6209336;28;20057;-78
2024/01/01 16:35:04;;;;;;;10.88;2.28;;;;;;;;;;6188332;28;20700;-78
2024/01/01 16:38:07;;;;;;;10.85;2.33;;;;;;;;;;6196713;28;20112;-77
2024/01/01 16:41:11;;;;;;;9.80;2.13;;;;;;;;;;6196512;28;20563;-78
2024/01/01 16:44:13;;;;;;;13.25;3.38;;;;;;;;;;6209720;28;20103;-78
2024/01/01 16:47:16;;;;;;;12.68;1.60;;;;;;;;;;6184703;28;20145;-78
2024/01/01 16:50:18;;;;;;;13.70;3.37;;;;;;;;;;6209195;28;21660;-78
2024/01/01 16:53:22;;;;;;;15.63;3.55;;;;;;;;;;6196531;28;20866;-78
2024/01/01 16:56:24;;;;;;;14.50;3.40;;;;;;;;;;6195919;28;20049;-77
2024/01/01 16:59:27;;;;;;;18.63;4.38;;;;;;;;;;6205471;28;20057;-78
2024/01/01 17:02:31;;;;;;;17.52;3.85;;;;;;;;;;6204082;28;20279;-78
2024/01/01 17:05:33;;;;;;;16.98;3.60;;;;;;;;;;6221586;28;20057;-78
2024/01/01 17:08:35;;;;;;;10.10;2.42;;;;;;;;;;6207292;28;20432;-78
2024/01/01 17:11:45;;;;;;;9.98;1.90;;;;;;;;;;6211652;28;20054;-78
2024/01/01 17:14:47;;;;;;;12.43;2.85;;;;;;;;;;6227657;28;20069;-77
2024/01/01 17:17:49;;;;;;;12.50;3.53;;;;;;;;;;6198742;28;20041;-78
2024/01/01 17:20:51;;;;;;;9.50;1.85;;;;;;;;;;6212493;28;20049;-76
2024/01/01 17:23:53;;;;;;;7.57;2.20;;;;;;;;;;6208159;28;20112;-77
2024/01/01 17:26:55;;;;;;;10.55;2.17;;;;;;;;;;6209239;28;20073;-77
2024/01/01 17:29:57;;;;;;;13.50;2.50;;;;;;;;;;6207349;28;20076;-77
2024/01/01 17:32:59;;;;;;;7.65;2.20;;;;;;;;;;6210049;28;20116;-78
2024/01/01 17:36:01;;;;;;;7.50;1.70;;;;;;;;;;6205664;28;20050;-77
2024/01/01 17:39:03;;;;;;;12.57;2.13;;;;;;;;;;6209978;28;20053;-79
2024/01/01 17:42:05;;;;;;;8.55;2.00;;;;;;;;;;6194989;28;20158;-76
2024/01/01 17:45:07;;;;;;;9.70;1.27;;;;;;;;;;6209787;28;20073;-77
2024/01/01 17:48:08;;;;;;;11.00;1.92;;;;;;;;;;6217532;28;20592;-77
2024/01/01 17:51:10;;;;;;;10.45;1.77;;;;;;;;;;6212401;28;20042;-77
2024/01/01 17:54:12;;;;;;;3.53;1.40;;;;;;;;;;6222997;28;20085;-77
2024/01/01 17:57:14;;;;;;;10.05;1.70;;;;;;;;;;6208804;28;20147;-77
2024/01/01 18:00:16;;;;;;;8.98;1.95;;;;;;;;;;6206165;28;20396;-77
2024/01/01 18:03:17;;;;;;;14.95;2.42;;;;;;;;;;6212880;28;20042;-77
2024/01/01 18:06:19;;;;;;;10.40;3.10;;;;;;;;;;6227246;28;20072;-76
2024/01/01 18:09:22;;;;;;;9.20;2.10;;;;;;;;;;6220193;28;20052;-77
2024/01/01 18:12:24;;;;;;;14.88;4.50;;;;;;;;;;6207508;28;20496;-77
2024/01/01 18:15:26;;;;;;;8.70;1.95;;;;;;;;;;6205243;28;20095;-75
2024/01/01 18:18:28;;;;;;;9.15;2.08;;;;;;;;;;6204171;28;20037;-77
2024/01/01 18:21:30;;;;;;;8.23;2.03;;;;;;;;;;6197729;28;20050;-75